sensor_id;sensor_type;location;lat;lon;timestamp;P1;durP1;ratioP1;P2;durP2;ratioP2
17235;SDS011;8734;59.272;17.780;2023-05-07T00:00:48;6.60;;;2.60;;
17235;SDS011;8734;59.272;17.780;2023-05-07T00:03:17;3.70;;;2.60;;
17235;SDS011;8734;59.272;17.780;2023-05-07T00:05:46;3.17;;;2.13;;
17235;SDS011;8734;59.272;17.780;2023-05-07T00:08:16;4.33;;;2.50;;
17235;SDS011;8734;59.272;17.780;2023-05-07T00:10:44;8.50;;;2.37;;
17235;SDS011;8734;59.272;17.780;2023-05-07T00:13:12;3.40;;;2.20;;
17235;SDS011;8734;59.272;17.780;2023-05-07T00:15:41;3.70;;;2.20;;
17235;SDS011;8734;59.272;17.780;2023-05-07T00:18:09;3.60;;;2.50;;
17235;SDS011;8734;59.272;17.780;2023-05-07T00:20:37;3.80;;;2.10;;
17235;SDS011;8734;59.272;17.780;2023-05-07T00:23:06;3.10;;;2.50;;
17235;SDS011;8734;59.272;17.780;2023-05-07T00:25:36;3.80;;;2.13;;
17235;SDS011;8734;59.272;17.780;2023-05-07T00:28:04;3.10;;;2.20;;
17235;SDS011;8734;59.272;17.780;2023-05-07T00:30:32;10.37;;;2.83;;
17235;SDS011;8734;59.272;17.780;2023-05-07T00:33:01;6.70;;;2.53;;
17235;SDS011;8734;59.272;17.780;2023-05-07T00:35:29;3.70;;;2.20;;
17235;SDS011;8734;59.272;17.780;2023-05-07T00:37:57;6.57;;;2.90;;
17235;SDS011;8734;59.272;17.780;2023-05-07T00:40:27;4.87;;;2.70;;
17235;SDS011;8734;59.272;17.780;2023-05-07T00:42:58;4.70;;;2.67;;
17235;SDS011;8734;59.272;17.780;2023-05-07T00:45:26;5.47;;;3.43;;
17235;SDS011;8734;59.272;17.780;2023-05-07T00:47:58;10.03;;;2.73;;
17235;SDS011;8734;59.272;17.780;2023-05-07T00:50:28;6.27;;;2.60;;
17235;SDS011;8734;59.272;17.780;2023-05-07T00:52:57;5.33;;;2.67;;
17235;SDS011;8734;59.272;17.780;2023-05-07T00:55:26;7.27;;;2.80;;
17235;SDS011;8734;59.272;17.780;2023-05-07T00:57:56;5.53;;;2.53;;
17235;SDS011;8734;59.272;17.780;2023-05-07T01:00:25;6.67;;;2.73;;
17235;SDS011;8734;59.272;17.780;2023-05-07T01:02:54;5.60;;;2.53;;
17235;SDS011;8734;59.272;17.780;2023-05-07T01:05:23;4.77;;;2.57;;
17235;SDS011;8734;59.272;17.780;2023-05-07T01:07:54;4.20;;;2.67;;
17235;SDS011;8734;59.272;17.780;2023-05-07T01:10:24;7.23;;;3.27;;
17235;SDS011;8734;59.272;17.780;2023-05-07T01:12:52;5.40;;;3.10;;
17235;SDS011;8734;59.272;17.780;2023-05-07T01:15:24;6.50;;;2.83;;
17235;SDS011;8734;59.272;17.780;2023-05-07T01:17:52;6.17;;;3.03;;
17235;SDS011;8734;59.272;17.780;2023-05-07T01:20:21;6.77;;;2.97;;
17235;SDS011;8734;59.272;17.780;2023-05-07T01:22:52;9.20;;;2.80;;
17235;SDS011;8734;59.272;17.780;2023-05-07T01:25:21;5.23;;;2.77;;
17235;SDS011;8734;59.272;17.780;2023-05-07T01:27:49;7.43;;;3.10;;
17235;SDS011;8734;59.272;17.780;2023-05-07T01:30:18;5.80;;;2.60;;
17235;SDS011;8734;59.272;17.780;2023-05-07T01:32:48;7.47;;;3.03;;
17235;SDS011;8734;59.272;17.780;2023-05-07T01:35:20;11.27;;;3.03;;
17235;SDS011;8734;59.272;17.780;2023-05-07T01:37:53;3.90;;;2.63;;
17235;SDS011;8734;59.272;17.780;2023-05-07T01:40:22;8.37;;;3.70;;
17235;SDS011;8734;59.272;17.780;2023-05-07T01:42:51;8.73;;;2.70;;
17235;SDS011;8734;59.272;17.780;2023-05-07T01:45:21;5.47;;;2.77;;
17235;SDS011;8734;59.272;17.780;2023-05-07T01:47:50;9.60;;;2.90;;
17235;SDS011;8734;59.272;17.780;2023-05-07T01:50:21;4.77;;;2.33;;
17235;SDS011;8734;59.272;17.780;2023-05-07T01:52:49;6.17;;;3.10;;
17235;SDS011;8734;59.272;17.780;2023-05-07T01:55:19;5.87;;;2.90;;
17235;SDS011;8734;59.272;17.780;2023-05-07T01:57:48;4.03;;;3.07;;
17235;SDS011;8734;59.272;17.780;2023-05-07T02:00:17;6.10;;;2.90;;
17235;SDS011;8734;59.272;17.780;2023-05-07T02:02:45;6.03;;;3.07;;
17235;SDS011;8734;59.272;17.780;2023-05-07T02:05:14;8.63;;;2.53;;
17235;SDS011;8734;59.272;17.780;2023-05-07T02:07:42;5.93;;;3.10;;
17235;SDS011;8734;59.272;17.780;2023-05-07T02:10:11;4.83;;;3.10;;
17235;SDS011;8734;59.272;17.780;2023-05-07T02:12:41;6.70;;;3.50;;
17235;SDS011;8734;59.272;17.780;2023-05-07T02:15:09;10.13;;;3.00;;
17235;SDS011;8734;59.272;17.780;2023-05-07T02:17:39;8.30;;;3.10;;
17235;SDS011;8734;59.272;17.780;2023-05-07T02:20:26;8.40;;;3.37;;
17235;SDS011;8734;59.272;17.780;2023-05-07T02:22:55;5.20;;;3.37;;
17235;SDS011;8734;59.272;17.780;2023-05-07T02:25:23;7.63;;;3.40;;
17235;SDS011;8734;59.272;17.780;2023-05-07T02:27:53;4.83;;;2.87;;
17235;SDS011;8734;59.272;17.780;2023-05-07T02:30:21;5.93;;;2.97;;
17235;SDS011;8734;59.272;17.780;2023-05-07T02:32:50;9.57;;;3.20;;
17235;SDS011;8734;59.272;17.780;2023-05-07T02:35:18;5.90;;;3.20;;
17235;SDS011;8734;59.272;17.780;2023-05-07T02:37:46;5.23;;;2.93;;
17235;SDS011;8734;59.272;17.780;2023-05-07T02:40:14;4.57;;;2.97;;
17235;SDS011;8734;59.272;17.780;2023-05-07T02:42:43;6.07;;;3.30;;
17235;SDS011;8734;59.272;17.780;2023-05-07T02:45:12;4.90;;;2.63;;
17235;SDS011;8734;59.272;17.780;2023-05-07T02:47:41;5.80;;;3.60;;
17235;SDS011;8734;59.272;17.780;2023-05-07T02:50:09;6.43;;;3.07;;
17235;SDS011;8734;59.272;17.780;2023-05-07T02:52:39;6.80;;;3.37;;
17235;SDS011;8734;59.272;17.780;2023-05-07T02:55:07;6.20;;;3.23;;
17235;SDS011;8734;59.272;17.780;2023-05-07T02:57:36;11.30;;;3.10;;
17235;SDS011;8734;59.272;17.780;2023-05-07T03:00:13;6.57;;;3.30;;
17235;SDS011;8734;59.272;17.780;2023-05-07T03:02:42;7.57;;;3.40;;
17235;SDS011;8734;59.272;17.780;2023-05-07T03:05:13;6.17;;;3.43;;
17235;SDS011;8734;59.272;17.780;2023-05-07T03:07:42;5.67;;;3.30;;
17235;SDS011;8734;59.272;17.780;2023-05-07T03:10:12;7.27;;;3.47;;
17235;SDS011;8734;59.272;17.780;2023-05-07T03:12:41;12.87;;;3.43;;
17235;SDS011;8734;59.272;17.780;2023-05-07T03:15:09;4.53;;;2.87;;
17235;SDS011;8734;59.272;17.780;2023-05-07T03:17:40;4.80;;;2.83;;
17235;SDS011;8734;59.272;17.780;2023-05-07T03:20:09;6.33;;;3.70;;
17235;SDS011;8734;59.272;17.780;2023-05-07T03:22:38;12.27;;;3.53;;
17235;SDS011;8734;59.272;17.780;2023-05-07T03:25:08;7.17;;;3.03;;
17235;SDS011;8734;59.272;17.780;2023-05-07T03:27:36;7.00;;;3.50;;
17235;SDS011;8734;59.272;17.780;2023-05-07T03:30:05;5.73;;;3.17;;
17235;SDS011;8734;59.272;17.780;2023-05-07T03:32:35;5.43;;;3.23;;
17235;SDS011;8734;59.272;17.780;2023-05-07T03:35:05;5.93;;;2.93;;
17235;SDS011;8734;59.272;17.780;2023-05-07T03:37:34;11.67;;;3.67;;
17235;SDS011;8734;59.272;17.780;2023-05-07T03:40:03;5.03;;;2.80;;
17235;SDS011;8734;59.272;17.780;2023-05-07T03:42:32;5.50;;;3.30;;
17235;SDS011;8734;59.272;17.780;2023-05-07T03:45:00;9.60;;;3.27;;
17235;SDS011;8734;59.272;17.780;2023-05-07T03:47:29;14.03;;;3.70;;
17235;SDS011;8734;59.272;17.780;2023-05-07T03:49:58;6.83;;;3.43;;
17235;SDS011;8734;59.272;17.780;2023-05-07T03:52:27;9.77;;;3.37;;
17235;SDS011;8734;59.272;17.780;2023-05-07T03:54:56;8.73;;;3.43;;
17235;SDS011;8734;59.272;17.780;2023-05-07T03:57:24;9.43;;;3.63;;
17235;SDS011;8734;59.272;17.780;2023-05-07T03:59:53;7.77;;;3.37;;
17235;SDS011;8734;59.272;17.780;2023-05-07T04:02:22;6.47;;;3.47;;
17235;SDS011;8734;59.272;17.780;2023-05-07T04:04:50;6.10;;;3.20;;
17235;SDS011;8734;59.272;17.780;2023-05-07T04:07:19;5.93;;;3.40;;
17235;SDS011;8734;59.272;17.780;2023-05-07T04:09:49;7.17;;;3.60;;
17235;SDS011;8734;59.272;17.780;2023-05-07T04:12:17;6.27;;;3.63;;
17235;SDS011;8734;59.272;17.780;2023-05-07T04:14:45;9.50;;;3.40;;
17235;SDS011;8734;59.272;17.780;2023-05-07T04:17:14;9.73;;;3.87;;
17235;SDS011;8734;59.272;17.780;2023-05-07T04:19:42;9.03;;;3.67;;
17235;SDS011;8734;59.272;17.780;2023-05-07T04:22:12;7.67;;;3.40;;
17235;SDS011;8734;59.272;17.780;2023-05-07T04:24:40;7.20;;;3.57;;
17235;SDS011;8734;59.272;17.780;2023-05-07T04:27:09;13.27;;;4.20;;
17235;SDS011;8734;59.272;17.780;2023-05-07T04:29:38;8.17;;;3.87;;
17235;SDS011;8734;59.272;17.780;2023-05-07T04:32:08;5.60;;;3.43;;
17235;SDS011;8734;59.272;17.780;2023-05-07T04:34:37;5.60;;;3.17;;
17235;SDS011;8734;59.272;17.780;2023-05-07T04:37:05;11.07;;;4.37;;
17235;SDS011;8734;59.272;17.780;2023-05-07T04:39:34;7.77;;;3.67;;
17235;SDS011;8734;59.272;17.780;2023-05-07T04:42:02;9.00;;;3.97;;
17235;SDS011;8734;59.272;17.780;2023-05-07T04:44:32;8.13;;;3.20;;
17235;SDS011;8734;59.272;17.780;2023-05-07T04:47:01;5.10;;;3.27;;
17235;SDS011;8734;59.272;17.780;2023-05-07T04:49:29;4.70;;;3.23;;
17235;SDS011;8734;59.272;17.780;2023-05-07T04:51:57;4.67;;;3.00;;
17235;SDS011;8734;59.272;17.780;2023-05-07T04:54:26;9.90;;;3.40;;
17235;SDS011;8734;59.272;17.780;2023-05-07T04:56:54;6.73;;;3.43;;
17235;SDS011;8734;59.272;17.780;2023-05-07T04:59:23;5.70;;;3.57;;
17235;SDS011;8734;59.272;17.780;2023-05-07T05:01:53;8.03;;;3.17;;
17235;SDS011;8734;59.272;17.780;2023-05-07T05:04:22;6.00;;;3.70;;
17235;SDS011;8734;59.272;17.780;2023-05-07T05:06:50;4.90;;;3.40;;
17235;SDS011;8734;59.272;17.780;2023-05-07T05:09:19;7.67;;;3.77;;
17235;SDS011;8734;59.272;17.780;2023-05-07T05:11:47;7.77;;;3.97;;
17235;SDS011;8734;59.272;17.780;2023-05-07T05:14:16;9.90;;;3.60;;
17235;SDS011;8734;59.272;17.780;2023-05-07T05:16:44;8.67;;;3.20;;
17235;SDS011;8734;59.272;17.780;2023-05-07T05:19:14;4.83;;;3.00;;
17235;SDS011;8734;59.272;17.780;2023-05-07T05:21:42;5.53;;;2.77;;
17235;SDS011;8734;59.272;17.780;2023-05-07T05:24:11;6.50;;;3.03;;
17235;SDS011;8734;59.272;17.780;2023-05-07T05:26:40;7.97;;;3.30;;
17235;SDS011;8734;59.272;17.780;2023-05-07T05:29:08;5.73;;;3.20;;
17235;SDS011;8734;59.272;17.780;2023-05-07T05:31:36;7.13;;;3.00;;
17235;SDS011;8734;59.272;17.780;2023-05-07T05:34:05;5.27;;;2.87;;
17235;SDS011;8734;59.272;17.780;2023-05-07T05:36:34;5.40;;;2.47;;
17235;SDS011;8734;59.272;17.780;2023-05-07T05:39:03;3.77;;;2.03;;
17235;SDS011;8734;59.272;17.780;2023-05-07T05:41:31;3.63;;;2.00;;
17235;SDS011;8734;59.272;17.780;2023-05-07T05:43:59;4.30;;;2.20;;
17235;SDS011;8734;59.272;17.780;2023-05-07T05:46:28;7.03;;;2.70;;
17235;SDS011;8734;59.272;17.780;2023-05-07T05:48:56;5.43;;;2.13;;
17235;SDS011;8734;59.272;17.780;2023-05-07T05:51:24;3.73;;;2.10;;
17235;SDS011;8734;59.272;17.780;2023-05-07T05:53:55;2.83;;;1.53;;
17235;SDS011;8734;59.272;17.780;2023-05-07T05:56:23;2.73;;;2.50;;
17235;SDS011;8734;59.272;17.780;2023-05-07T05:58:52;1.90;;;1.47;;
17235;SDS011;8734;59.272;17.780;2023-05-07T06:01:21;2.50;;;1.70;;
17235;SDS011;8734;59.272;17.780;2023-05-07T06:03:49;2.40;;;1.90;;
17235;SDS011;8734;59.272;17.780;2023-05-07T06:06:17;3.47;;;1.77;;
17235;SDS011;8734;59.272;17.780;2023-05-07T06:08:46;2.73;;;1.60;;
17235;SDS011;8734;59.272;17.780;2023-05-07T06:11:16;4.10;;;1.80;;
17235;SDS011;8734;59.272;17.780;2023-05-07T06:13:44;2.33;;;1.40;;
17235;SDS011;8734;59.272;17.780;2023-05-07T06:16:13;5.73;;;1.63;;
17235;SDS011;8734;59.272;17.780;2023-05-07T06:18:42;2.30;;;1.50;;
17235;SDS011;8734;59.272;17.780;2023-05-07T06:21:13;1.63;;;1.30;;
17235;SDS011;8734;59.272;17.780;2023-05-07T06:23:41;3.80;;;1.20;;
17235;SDS011;8734;59.272;17.780;2023-05-07T06:26:10;3.13;;;1.37;;
17235;SDS011;8734;59.272;17.780;2023-05-07T06:28:40;4.37;;;1.70;;
17235;SDS011;8734;59.272;17.780;2023-05-07T06:31:12;2.03;;;1.50;;
17235;SDS011;8734;59.272;17.780;2023-05-07T06:33:41;9.43;;;1.50;;
17235;SDS011;8734;59.272;17.780;2023-05-07T06:36:10;3.50;;;1.20;;
17235;SDS011;8734;59.272;17.780;2023-05-07T06:38:38;1.97;;;1.70;;
17235;SDS011;8734;59.272;17.780;2023-05-07T06:41:07;3.53;;;1.40;;
17235;SDS011;8734;59.272;17.780;2023-05-07T06:43:35;2.23;;;1.13;;
17235;SDS011;8734;59.272;17.780;2023-05-07T06:46:05;2.00;;;1.03;;
17235;SDS011;8734;59.272;17.780;2023-05-07T06:48:33;3.67;;;1.60;;
17235;SDS011;8734;59.272;17.780;2023-05-07T06:51:02;1.77;;;1.10;;
17235;SDS011;8734;59.272;17.780;2023-05-07T06:53:30;6.33;;;1.50;;
17235;SDS011;8734;59.272;17.780;2023-05-07T06:55:58;3.73;;;1.50;;
17235;SDS011;8734;59.272;17.780;2023-05-07T06:58:27;2.60;;;1.27;;
17235;SDS011;8734;59.272;17.780;2023-05-07T07:00:55;6.03;;;1.33;;
17235;SDS011;8734;59.272;17.780;2023-05-07T07:03:25;1.60;;;1.20;;
17235;SDS011;8734;59.272;17.780;2023-05-07T07:05:54;2.43;;;1.30;;
17235;SDS011;8734;59.272;17.780;2023-05-07T07:08:22;3.63;;;1.10;;
17235;SDS011;8734;59.272;17.780;2023-05-07T07:10:50;1.40;;;1.20;;
17235;SDS011;8734;59.272;17.780;2023-05-07T07:13:20;2.53;;;1.40;;
17235;SDS011;8734;59.272;17.780;2023-05-07T07:15:48;3.33;;;1.33;;
17235;SDS011;8734;59.272;17.780;2023-05-07T07:18:16;1.83;;;1.30;;
17235;SDS011;8734;59.272;17.780;2023-05-07T07:20:46;2.30;;;1.13;;
17235;SDS011;8734;59.272;17.780;2023-05-07T07:23:15;4.20;;;1.20;;
17235;SDS011;8734;59.272;17.780;2023-05-07T07:25:43;5.60;;;1.40;;
17235;SDS011;8734;59.272;17.780;2023-05-07T07:28:11;6.70;;;1.40;;
17235;SDS011;8734;59.272;17.780;2023-05-07T07:30:40;4.50;;;1.27;;
17235;SDS011;8734;59.272;17.780;2023-05-07T07:33:08;3.97;;;1.30;;
17235;SDS011;8734;59.272;17.780;2023-05-07T07:35:37;5.73;;;1.30;;
17235;SDS011;8734;59.272;17.780;2023-05-07T07:38:07;5.27;;;0.93;;
17235;SDS011;8734;59.272;17.780;2023-05-07T07:40:35;3.80;;;1.30;;
17235;SDS011;8734;59.272;17.780;2023-05-07T07:43:04;2.23;;;1.13;;
17235;SDS011;8734;59.272;17.780;2023-05-07T07:45:32;1.27;;;1.10;;
17235;SDS011;8734;59.272;17.780;2023-05-07T07:48:00;2.20;;;1.30;;
17235;SDS011;8734;59.272;17.780;2023-05-07T07:50:29;4.07;;;1.30;;
17235;SDS011;8734;59.272;17.780;2023-05-07T07:53:10;2.60;;;1.30;;
17235;SDS011;8734;59.272;17.780;2023-05-07T07:55:39;4.90;;;1.20;;
17235;SDS011;8734;59.272;17.780;2023-05-07T07:58:07;3.30;;;1.37;;
17235;SDS011;8734;59.272;17.780;2023-05-07T08:00:36;3.20;;;1.27;;
17235;SDS011;8734;59.272;17.780;2023-05-07T08:03:05;2.53;;;1.20;;
17235;SDS011;8734;59.272;17.780;2023-05-07T08:05:34;2.33;;;1.20;;
17235;SDS011;8734;59.272;17.780;2023-05-07T08:08:02;4.43;;;1.10;;
17235;SDS011;8734;59.272;17.780;2023-05-07T08:10:33;1.30;;;1.20;;
17235;SDS011;8734;59.272;17.780;2023-05-07T08:13:04;5.00;;;1.40;;
17235;SDS011;8734;59.272;17.780;2023-05-07T08:15:33;6.67;;;1.27;;
17235;SDS011;8734;59.272;17.780;2023-05-07T08:18:01;5.37;;;1.00;;
17235;SDS011;8734;59.272;17.780;2023-05-07T08:20:30;2.20;;;0.93;;
17235;SDS011;8734;59.272;17.780;2023-05-07T08:22:58;2.30;;;1.10;;
17235;SDS011;8734;59.272;17.780;2023-05-07T08:25:26;3.87;;;1.07;;
17235;SDS011;8734;59.272;17.780;2023-05-07T08:27:56;1.93;;;1.10;;
17235;SDS011;8734;59.272;17.780;2023-05-07T08:30:24;4.47;;;1.00;;
17235;SDS011;8734;59.272;17.780;2023-05-07T08:32:53;1.13;;;1.03;;
17235;SDS011;8734;59.272;17.780;2023-05-07T08:35:21;2.23;;;1.20;;
17235;SDS011;8734;59.272;17.780;2023-05-07T08:37:50;2.73;;;1.23;;
17235;SDS011;8734;59.272;17.780;2023-05-07T08:40:18;5.30;;;1.20;;
17235;SDS011;8734;59.272;17.780;2023-05-07T08:42:48;2.73;;;0.93;;
17235;SDS011;8734;59.272;17.780;2023-05-07T08:45:20;5.70;;;1.30;;
17235;SDS011;8734;59.272;17.780;2023-05-07T08:47:50;3.63;;;1.00;;
17235;SDS011;8734;59.272;17.780;2023-05-07T08:50:22;1.77;;;1.10;;
17235;SDS011;8734;59.272;17.780;2023-05-07T08:52:50;3.93;;;1.20;;
17235;SDS011;8734;59.272;17.780;2023-05-07T08:55:19;8.33;;;1.10;;
17235;SDS011;8734;59.272;17.780;2023-05-07T08:57:48;1.83;;;1.20;;
17235;SDS011;8734;59.272;17.780;2023-05-07T09:00:16;1.00;;;0.90;;
17235;SDS011;8734;59.272;17.780;2023-05-07T09:02:46;1.57;;;1.13;;
17235;SDS011;8734;59.272;17.780;2023-05-07T09:05:15;1.93;;;1.10;;
17235;SDS011;8734;59.272;17.780;2023-05-07T09:07:44;5.57;;;1.23;;
17235;SDS011;8734;59.272;17.780;2023-05-07T09:10:12;4.80;;;1.10;;
17235;SDS011;8734;59.272;17.780;2023-05-07T09:12:41;1.40;;;1.20;;
17235;SDS011;8734;59.272;17.780;2023-05-07T09:15:10;1.77;;;1.27;;
17235;SDS011;8734;59.272;17.780;2023-05-07T09:17:39;2.43;;;1.00;;
17235;SDS011;8734;59.272;17.780;2023-05-07T09:20:10;3.63;;;2.20;;
17235;SDS011;8734;59.272;17.780;2023-05-07T09:22:40;1.30;;;0.90;;
17235;SDS011;8734;59.272;17.780;2023-05-07T09:25:09;3.07;;;1.03;;
17235;SDS011;8734;59.272;17.780;2023-05-07T09:27:37;1.63;;;0.87;;
17235;SDS011;8734;59.272;17.780;2023-05-07T09:30:06;2.80;;;0.80;;
17235;SDS011;8734;59.272;17.780;2023-05-07T09:32:35;5.93;;;1.03;;
17235;SDS011;8734;59.272;17.780;2023-05-07T09:35:06;2.43;;;1.30;;
17235;SDS011;8734;59.272;17.780;2023-05-07T09:37:44;6.77;;;1.10;;
17235;SDS011;8734;59.272;17.780;2023-05-07T09:40:19;1.17;;;0.90;;
17235;SDS011;8734;59.272;17.780;2023-05-07T09:42:49;4.03;;;1.20;;
17235;SDS011;8734;59.272;17.780;2023-05-07T09:45:21;4.77;;;1.20;;
17235;SDS011;8734;59.272;17.780;2023-05-07T09:47:53;5.80;;;0.97;;
17235;SDS011;8734;59.272;17.780;2023-05-07T09:50:25;2.43;;;1.20;;
17235;SDS011;8734;59.272;17.780;2023-05-07T09:52:55;3.87;;;1.07;;
17235;SDS011;8734;59.272;17.780;2023-05-07T09:55:25;1.77;;;1.20;;
17235;SDS011;8734;59.272;17.780;2023-05-07T09:57:53;2.73;;;0.80;;
17235;SDS011;8734;59.272;17.780;2023-05-07T10:00:22;1.63;;;1.07;;
17235;SDS011;8734;59.272;17.780;2023-05-07T10:02:52;1.10;;;1.00;;
17235;SDS011;8734;59.272;17.780;2023-05-07T10:05:22;2.00;;;1.10;;
17235;SDS011;8734;59.272;17.780;2023-05-07T10:07:52;1.83;;;1.10;;
17235;SDS011;8734;59.272;17.780;2023-05-07T10:10:21;4.20;;;1.30;;
17235;SDS011;8734;59.272;17.780;2023-05-07T10:12:51;2.00;;;0.90;;
17235;SDS011;8734;59.272;17.780;2023-05-07T10:15:20;1.83;;;1.10;;
17235;SDS011;8734;59.272;17.780;2023-05-07T10:17:51;2.73;;;1.10;;
17235;SDS011;8734;59.272;17.780;2023-05-07T10:20:21;1.83;;;1.00;;
17235;SDS011;8734;59.272;17.780;2023-05-07T10:22:49;1.70;;;0.93;;
17235;SDS011;8734;59.272;17.780;2023-05-07T10:25:22;1.90;;;0.67;;
17235;SDS011;8734;59.272;17.780;2023-05-07T10:27:56;0.83;;;0.80;;
17235;SDS011;8734;59.272;17.780;2023-05-07T10:30:32;0.77;;;0.67;;
17235;SDS011;8734;59.272;17.780;2023-05-07T10:33:09;1.93;;;1.00;;
17235;SDS011;8734;59.272;17.780;2023-05-07T10:35:40;2.07;;;1.20;;
17235;SDS011;8734;59.272;17.780;2023-05-07T10:38:11;1.17;;;0.87;;
17235;SDS011;8734;59.272;17.780;2023-05-07T10:40:41;4.00;;;0.80;;
17235;SDS011;8734;59.272;17.780;2023-05-07T10:43:13;1.90;;;0.70;;
17235;SDS011;8734;59.272;17.780;2023-05-07T10:45:41;3.47;;;0.97;;
17235;SDS011;8734;59.272;17.780;2023-05-07T10:48:10;4.10;;;0.90;;
17235;SDS011;8734;59.272;17.780;2023-05-07T10:50:43;2.40;;;1.10;;
17235;SDS011;8734;59.272;17.780;2023-05-07T10:53:22;1.03;;;0.90;;
17235;SDS011;8734;59.272;17.780;2023-05-07T11:02:01;7.13;;;0.83;;
17235;SDS011;8734;59.272;17.780;2023-05-07T11:04:31;1.73;;;0.70;;
17235;SDS011;8734;59.272;17.780;2023-05-07T11:07:23;1.50;;;0.90;;
17235;SDS011;8734;59.272;17.780;2023-05-07T11:12:51;1.57;;;1.07;;
17235;SDS011;8734;59.272;17.780;2023-05-07T11:15:39;3.33;;;1.10;;
17235;SDS011;8734;59.272;17.780;2023-05-07T11:18:10;2.77;;;1.20;;
17235;SDS011;8734;59.272;17.780;2023-05-07T11:26:24;1.60;;;1.10;;
17235;SDS011;8734;59.272;17.780;2023-05-07T11:28:54;2.80;;;0.73;;
17235;SDS011;8734;59.272;17.780;2023-05-07T11:31:24;3.07;;;0.80;;
17235;SDS011;8734;59.272;17.780;2023-05-07T11:33:55;4.50;;;1.10;;
17235;SDS011;8734;59.272;17.780;2023-05-07T11:36:23;2.40;;;1.07;;
17235;SDS011;8734;59.272;17.780;2023-05-07T11:38:52;1.13;;;0.60;;
17235;SDS011;8734;59.272;17.780;2023-05-07T11:41:20;2.53;;;1.20;;
17235;SDS011;8734;59.272;17.780;2023-05-07T11:43:57;2.33;;;1.10;;
17235;SDS011;8734;59.272;17.780;2023-05-07T11:46:28;1.20;;;0.87;;
17235;SDS011;8734;59.272;17.780;2023-05-07T11:48:56;1.53;;;1.03;;
17235;SDS011;8734;59.272;17.780;2023-05-07T11:51:24;1.53;;;1.00;;
17235;SDS011;8734;59.272;17.780;2023-05-07T11:53:53;4.17;;;1.10;;
17235;SDS011;8734;59.272;17.780;2023-05-07T11:56:22;2.53;;;1.10;;
17235;SDS011;8734;59.272;17.780;2023-05-07T11:58:50;5.80;;;0.97;;
17235;SDS011;8734;59.272;17.780;2023-05-07T12:01:21;2.33;;;1.40;;
17235;SDS011;8734;59.272;17.780;2023-05-07T12:03:49;2.90;;;1.20;;
17235;SDS011;8734;59.272;17.780;2023-05-07T12:06:19;2.70;;;1.10;;
17235;SDS011;8734;59.272;17.780;2023-05-07T12:08:47;2.67;;;0.80;;
17235;SDS011;8734;59.272;17.780;2023-05-07T12:11:16;5.47;;;1.27;;
17235;SDS011;8734;59.272;17.780;2023-05-07T12:13:51;2.47;;;1.03;;
17235;SDS011;8734;59.272;17.780;2023-05-07T12:16:26;1.37;;;1.00;;
17235;SDS011;8734;59.272;17.780;2023-05-07T12:18:55;2.03;;;0.93;;
17235;SDS011;8734;59.272;17.780;2023-05-07T12:21:25;1.10;;;1.00;;
17235;SDS011;8734;59.272;17.780;2023-05-07T12:23:53;7.70;;;1.30;;
17235;SDS011;8734;59.272;17.780;2023-05-07T12:26:23;3.30;;;1.20;;
17235;SDS011;8734;59.272;17.780;2023-05-07T12:28:51;21.50;;;1.30;;
17235;SDS011;8734;59.272;17.780;2023-05-07T12:31:19;1.53;;;1.10;;
17235;SDS011;8734;59.272;17.780;2023-05-07T12:33:50;1.80;;;1.00;;
17235;SDS011;8734;59.272;17.780;2023-05-07T12:36:18;4.03;;;1.63;;
17235;SDS011;8734;59.272;17.780;2023-05-07T12:38:48;1.10;;;0.90;;
17235;SDS011;8734;59.272;17.780;2023-05-07T12:41:17;1.33;;;0.97;;
17235;SDS011;8734;59.272;17.780;2023-05-07T12:43:52;3.00;;;1.00;;
17235;SDS011;8734;59.272;17.780;2023-05-07T12:46:24;4.20;;;1.40;;
17235;SDS011;8734;59.272;17.780;2023-05-07T12:48:54;3.33;;;1.20;;
17235;SDS011;8734;59.272;17.780;2023-05-07T12:51:22;1.10;;;0.80;;
17235;SDS011;8734;59.272;17.780;2023-05-07T12:53:51;3.83;;;1.37;;
17235;SDS011;8734;59.272;17.780;2023-05-07T12:56:24;8.63;;;1.57;;
17235;SDS011;8734;59.272;17.780;2023-05-07T12:58:56;2.73;;;1.30;;
17235;SDS011;8734;59.272;17.780;2023-05-07T13:01:28;1.90;;;1.10;;
17235;SDS011;8734;59.272;17.780;2023-05-07T13:04:02;2.53;;;1.10;;
17235;SDS011;8734;59.272;17.780;2023-05-07T13:06:32;1.83;;;1.00;;
17235;SDS011;8734;59.272;17.780;2023-05-07T13:09:00;4.63;;;1.10;;
17235;SDS011;8734;59.272;17.780;2023-05-07T13:11:29;4.83;;;1.20;;
17235;SDS011;8734;59.272;17.780;2023-05-07T13:13:57;1.17;;;0.80;;
17235;SDS011;8734;59.272;17.780;2023-05-07T13:16:26;3.23;;;1.17;;
17235;SDS011;8734;59.272;17.780;2023-05-07T13:18:54;1.90;;;1.10;;
17235;SDS011;8734;59.272;17.780;2023-05-07T13:21:24;3.27;;;1.30;;
17235;SDS011;8734;59.272;17.780;2023-05-07T13:23:53;3.37;;;1.17;;
17235;SDS011;8734;59.272;17.780;2023-05-07T13:26:21;4.07;;;1.03;;
17235;SDS011;8734;59.272;17.780;2023-05-07T13:28:52;4.07;;;1.23;;
17235;SDS011;8734;59.272;17.780;2023-05-07T13:31:21;14.77;;;1.60;;
17235;SDS011;8734;59.272;17.780;2023-05-07T13:33:49;3.93;;;1.63;;
17235;SDS011;8734;59.272;17.780;2023-05-07T13:36:19;3.77;;;1.30;;
17235;SDS011;8734;59.272;17.780;2023-05-07T13:38:48;2.83;;;1.40;;
17235;SDS011;8734;59.272;17.780;2023-05-07T13:41:18;7.30;;;1.27;;
17235;SDS011;8734;59.272;17.780;2023-05-07T13:43:46;5.33;;;1.23;;
17235;SDS011;8734;59.272;17.780;2023-05-07T13:46:15;4.63;;;1.07;;
17235;SDS011;8734;59.272;17.780;2023-05-07T13:48:44;2.90;;;0.90;;
17235;SDS011;8734;59.272;17.780;2023-05-07T13:51:12;5.50;;;1.40;;
17235;SDS011;8734;59.272;17.780;2023-05-07T13:53:41;6.10;;;1.10;;
17235;SDS011;8734;59.272;17.780;2023-05-07T13:56:10;2.93;;;1.23;;
17235;SDS011;8734;59.272;17.780;2023-05-07T13:58:38;2.97;;;0.97;;
17235;SDS011;8734;59.272;17.780;2023-05-07T14:01:25;3.07;;;0.93;;
17235;SDS011;8734;59.272;17.780;2023-05-07T14:03:55;3.03;;;1.03;;
17235;SDS011;8734;59.272;17.780;2023-05-07T14:06:24;7.37;;;1.03;;
17235;SDS011;8734;59.272;17.780;2023-05-07T14:08:52;1.50;;;0.90;;
17235;SDS011;8734;59.272;17.780;2023-05-07T14:11:22;5.20;;;1.13;;
17235;SDS011;8734;59.272;17.780;2023-05-07T14:13:50;1.67;;;1.00;;
17235;SDS011;8734;59.272;17.780;2023-05-07T14:16:19;1.00;;;0.73;;
17235;SDS011;8734;59.272;17.780;2023-05-07T14:18:48;1.43;;;0.80;;
17235;SDS011;8734;59.272;17.780;2023-05-07T14:21:16;7.87;;;1.17;;
17235;SDS011;8734;59.272;17.780;2023-05-07T14:23:44;2.93;;;1.20;;
17235;SDS011;8734;59.272;17.780;2023-05-07T14:26:13;13.00;;;1.40;;
17235;SDS011;8734;59.272;17.780;2023-05-07T14:28:43;2.20;;;1.20;;
17235;SDS011;8734;59.272;17.780;2023-05-07T14:31:12;4.27;;;1.07;;
17235;SDS011;8734;59.272;17.780;2023-05-07T14:33:41;5.03;;;1.00;;
17235;SDS011;8734;59.272;17.780;2023-05-07T14:36:09;2.13;;;1.10;;
17235;SDS011;8734;59.272;17.780;2023-05-07T14:38:38;9.03;;;1.33;;
17235;SDS011;8734;59.272;17.780;2023-05-07T14:41:06;2.37;;;1.30;;
17235;SDS011;8734;59.272;17.780;2023-05-07T14:43:34;1.30;;;0.90;;
17235;SDS011;8734;59.272;17.780;2023-05-07T14:46:04;6.00;;;1.10;;
17235;SDS011;8734;59.272;17.780;2023-05-07T14:48:33;3.03;;;1.30;;
17235;SDS011;8734;59.272;17.780;2023-05-07T14:51:01;3.03;;;1.20;;
17235;SDS011;8734;59.272;17.780;2023-05-07T14:53:29;4.87;;;1.37;;
17235;SDS011;8734;59.272;17.780;2023-05-07T14:55:57;1.83;;;0.93;;
17235;SDS011;8734;59.272;17.780;2023-05-07T14:58:26;2.10;;;1.23;;
17235;SDS011;8734;59.272;17.780;2023-05-07T15:00:54;2.17;;;0.93;;
17235;SDS011;8734;59.272;17.780;2023-05-07T15:03:24;5.40;;;1.00;;
17235;SDS011;8734;59.272;17.780;2023-05-07T15:05:52;1.50;;;1.20;;
17235;SDS011;8734;59.272;17.780;2023-05-07T15:08:20;3.90;;;1.23;;
17235;SDS011;8734;59.272;17.780;2023-05-07T15:10:49;3.50;;;1.00;;
17235;SDS011;8734;59.272;17.780;2023-05-07T15:13:17;4.77;;;0.90;;
17235;SDS011;8734;59.272;17.780;2023-05-07T15:15:46;0.80;;;0.80;;